sensor_id;sensor_type;location;lat;lon;timestamp;P1;durP1;ratioP1;P2;durP2;ratioP2
2123;SDS011;1068;52.460;13.528;2022-12-07T00:00:02;10.40;;;6.88;;
2123;SDS011;1068;52.460;13.528;2022-12-07T00:02:30;8.23;;;6.80;;
2123;SDS011;1068;52.460;13.528;2022-12-07T00:04:57;8.30;;;6.95;;
2123;SDS011;1068;52.460;13.528;2022-12-07T00:07:24;8.93;;;6.85;;
2123;SDS011;1068;52.460;13.528;2022-12-07T00:09:52;9.48;;;7.05;;
2123;SDS011;1068;52.460;13.528;2022-12-07T00:12:19;8.88;;;7.20;;
2123;SDS011;1068;52.460;13.528;2022-12-07T00:14:46;10.48;;;7.70;;
2123;SDS011;1068;52.460;13.528;2022-12-07T00:17:13;10.80;;;7.57;;
2123;SDS011;1068;52.460;13.528;2022-12-07T00:19:40;12.00;;;7.53;;
2123;SDS011;1068;52.460;13.528;2022-12-07T00:22:07;11.15;;;8.18;;
2123;SDS011;1068;52.460;13.528;2022-12-07T00:24:34;11.55;;;7.57;;
2123;SDS011;1068;52.460;13.528;2022-12-07T00:27:02;11.10;;;7.97;;
2123;SDS011;1068;52.460;13.528;2022-12-07T00:29:29;10.88;;;7.65;;
2123;SDS011;1068;52.460;13.528;2022-12-07T00:31:56;9.60;;;7.55;;
2123;SDS011;1068;52.460;13.528;2022-12-07T00:34:23;10.20;;;7.85;;
2123;SDS011;1068;52.460;13.528;2022-12-07T00:36:50;12.30;;;8.85;;
2123;SDS011;1068;52.460;13.528;2022-12-07T00:39:17;12.63;;;8.95;;
2123;SDS011;1068;52.460;13.528;2022-12-07T00:41:44;12.48;;;8.40;;
2123;SDS011;1068;52.460;13.528;2022-12-07T00:44:12;11.68;;;8.73;;
2123;SDS011;1068;52.460;13.528;2022-12-07T00:46:39;10.52;;;7.72;;
2123;SDS011;1068;52.460;13.528;2022-12-07T00:49:06;11.88;;;8.52;;
2123;SDS011;1068;52.460;13.528;2022-12-07T00:51:32;7.72;;;6.65;;
2123;SDS011;1068;52.460;13.528;2022-12-07T00:53:59;8.98;;;7.95;;
2123;SDS011;1068;52.460;13.528;2022-12-07T00:56:27;8.63;;;7.22;;
2123;SDS011;1068;52.460;13.528;2022-12-07T00:58:55;8.10;;;7.18;;
2123;SDS011;1068;52.460;13.528;2022-12-07T01:01:24;9.50;;;7.53;;
2123;SDS011;1068;52.460;13.528;2022-12-07T01:03:51;8.88;;;6.57;;
2123;SDS011;1068;52.460;13.528;2022-12-07T01:06:18;7.18;;;6.05;;
2123;SDS011;1068;52.460;13.528;2022-12-07T01:08:45;10.30;;;7.63;;
2123;SDS011;1068;52.460;13.528;2022-12-07T01:11:13;7.88;;;6.63;;
2123;SDS011;1068;52.460;13.528;2022-12-07T01:13:40;8.32;;;7.35;;
2123;SDS011;1068;52.460;13.528;2022-12-07T01:16:08;8.57;;;7.63;;
2123;SDS011;1068;52.460;13.528;2022-12-07T01:18:37;8.23;;;6.88;;
2123;SDS011;1068;52.460;13.528;2022-12-07T01:21:05;9.52;;;7.63;;
2123;SDS011;1068;52.460;13.528;2022-12-07T01:23:32;8.40;;;6.53;;
2123;SDS011;1068;52.460;13.528;2022-12-07T01:26:00;6.93;;;6.25;;
2123;SDS011;1068;52.460;13.528;2022-12-07T01:28:27;7.93;;;7.13;;
2123;SDS011;1068;52.460;13.528;2022-12-07T01:30:55;6.55;;;5.60;;
2123;SDS011;1068;52.460;13.528;2022-12-07T01:33:22;7.13;;;6.43;;
2123;SDS011;1068;52.460;13.528;2022-12-07T01:35:50;7.47;;;6.78;;
2123;SDS011;1068;52.460;13.528;2022-12-07T01:38:17;7.43;;;6.72;;
2123;SDS011;1068;52.460;13.528;2022-12-07T01:40:44;7.05;;;6.15;;
2123;SDS011;1068;52.460;13.528;2022-12-07T01:43:14;6.78;;;5.93;;
2123;SDS011;1068;52.460;13.528;2022-12-07T01:45:43;6.50;;;5.90;;
2123;SDS011;1068;52.460;13.528;2022-12-07T01:48:11;6.05;;;5.45;;
2123;SDS011;1068;52.460;13.528;2022-12-07T01:50:40;5.57;;;5.10;;
2123;SDS011;1068;52.460;13.528;2022-12-07T01:53:10;5.72;;;5.22;;
2123;SDS011;1068;52.460;13.528;2022-12-07T01:55:38;6.53;;;5.82;;
2123;SDS011;1068;52.460;13.528;2022-12-07T01:58:06;5.90;;;5.40;;
2123;SDS011;1068;52.460;13.528;2022-12-07T02:00:33;6.88;;;6.20;;
2123;SDS011;1068;52.460;13.528;2022-12-07T02:03:02;5.25;;;4.82;;
2123;SDS011;1068;52.460;13.528;2022-12-07T02:05:30;7.25;;;5.20;;
2123;SDS011;1068;52.460;13.528;2022-12-07T02:07:57;6.53;;;5.93;;
2123;SDS011;1068;52.460;13.528;2022-12-07T02:10:27;6.18;;;5.47;;
2123;SDS011;1068;52.460;13.528;2022-12-07T02:12:55;5.53;;;5.03;;
2123;SDS011;1068;52.460;13.528;2022-12-07T02:15:24;7.25;;;6.10;;
2123;SDS011;1068;52.460;13.528;2022-12-07T02:17:54;5.80;;;5.20;;
2123;SDS011;1068;52.460;13.528;2022-12-07T02:20:23;5.25;;;4.75;;
2123;SDS011;1068;52.460;13.528;2022-12-07T02:23:00;5.03;;;4.50;;
2123;SDS011;1068;52.460;13.528;2022-12-07T02:25:36;5.57;;;5.07;;
2123;SDS011;1068;52.460;13.528;2022-12-07T02:28:09;5.65;;;5.15;;
2123;SDS011;1068;52.460;13.528;2022-12-07T02:30:42;5.03;;;4.63;;
2123;SDS011;1068;52.460;13.528;2022-12-07T02:33:11;5.10;;;4.60;;
2123;SDS011;1068;52.460;13.528;2022-12-07T02:35:41;5.40;;;4.90;;
2123;SDS011;1068;52.460;13.528;2022-12-07T02:38:11;5.30;;;4.80;;
2123;SDS011;1068;52.460;13.528;2022-12-07T02:40:40;5.68;;;5.07;;
2123;SDS011;1068;52.460;13.528;2022-12-07T02:43:09;4.85;;;4.35;;
2123;SDS011;1068;52.460;13.528;2022-12-07T02:45:38;6.95;;;4.47;;
2123;SDS011;1068;52.460;13.528;2022-12-07T02:48:07;5.10;;;4.70;;
2123;SDS011;1068;52.460;13.528;2022-12-07T02:50:35;9.32;;;5.57;;
2123;SDS011;1068;52.460;13.528;2022-12-07T02:53:02;6.53;;;5.10;;
2123;SDS011;1068;52.460;13.528;2022-12-07T02:55:30;7.05;;;5.00;;
2123;SDS011;1068;52.460;13.528;2022-12-07T02:58:05;5.38;;;4.88;;
2123;SDS011;1068;52.460;13.528;2022-12-07T03:00:34;5.75;;;5.25;;
2123;SDS011;1068;52.460;13.528;2022-12-07T03:03:03;4.93;;;4.40;;
2123;SDS011;1068;52.460;13.528;2022-12-07T03:05:43;5.82;;;5.22;;
2123;SDS011;1068;52.460;13.528;2022-12-07T03:08:17;4.85;;;4.35;;
2123;SDS011;1068;52.460;13.528;2022-12-07T03:10:48;4.87;;;4.47;;
2123;SDS011;1068;52.460;13.528;2022-12-07T03:13:19;4.50;;;4.20;;
2123;SDS011;1068;52.460;13.528;2022-12-07T03:15:49;5.00;;;4.50;;
2123;SDS011;1068;52.460;13.528;2022-12-07T03:18:21;4.85;;;4.45;;
2123;SDS011;1068;52.460;13.528;2022-12-07T03:20:50;4.65;;;4.25;;
2123;SDS011;1068;52.460;13.528;2022-12-07T03:23:19;5.03;;;4.63;;
2123;SDS011;1068;52.460;13.528;2022-12-07T03:25:47;4.70;;;4.25;;
2123;SDS011;1068;52.460;13.528;2022-12-07T03:28:16;5.35;;;4.85;;
2123;SDS011;1068;52.460;13.528;2022-12-07T03:30:46;4.90;;;4.38;;
2123;SDS011;1068;52.460;13.528;2022-12-07T03:33:15;4.90;;;4.50;;
2123;SDS011;1068;52.460;13.528;2022-12-07T03:35:45;4.85;;;4.35;;
2123;SDS011;1068;52.460;13.528;2022-12-07T03:38:17;4.90;;;4.43;;
2123;SDS011;1068;52.460;13.528;2022-12-07T03:40:47;5.50;;;5.00;;
2123;SDS011;1068;52.460;13.528;2022-12-07T03:43:15;5.82;;;4.40;;
2123;SDS011;1068;52.460;13.528;2022-12-07T03:45:43;4.55;;;4.10;;
2123;SDS011;1068;52.460;13.528;2022-12-07T03:48:13;4.50;;;4.05;;
2123;SDS011;1068;52.460;13.528;2022-12-07T03:50:48;5.45;;;4.95;;
2123;SDS011;1068;52.460;13.528;2022-12-07T03:53:19;4.95;;;4.50;;
2123;SDS011;1068;52.460;13.528;2022-12-07T03:55:47;4.80;;;4.10;;
2123;SDS011;1068;52.460;13.528;2022-12-07T03:58:15;4.72;;;4.32;;
2123;SDS011;1068;52.460;13.528;2022-12-07T04:00:43;6.00;;;4.75;;
2123;SDS011;1068;52.460;13.528;2022-12-07T04:03:10;6.20;;;5.28;;
2123;SDS011;1068;52.460;13.528;2022-12-07T04:05:37;6.10;;;5.50;;
2123;SDS011;1068;52.460;13.528;2022-12-07T04:08:05;5.68;;;4.90;;
2123;SDS011;1068;52.460;13.528;2022-12-07T04:10:33;6.45;;;5.75;;
2123;SDS011;1068;52.460;13.528;2022-12-07T04:13:00;7.20;;;5.85;;
2123;SDS011;1068;52.460;13.528;2022-12-07T04:15:27;6.68;;;6.00;;
2123;SDS011;1068;52.460;13.528;2022-12-07T04:17:54;6.18;;;5.57;;
2123;SDS011;1068;52.460;13.528;2022-12-07T04:20:21;7.13;;;6.43;;
2123;SDS011;1068;52.460;13.528;2022-12-07T04:22:48;7.10;;;6.38;;
2123;SDS011;1068;52.460;13.528;2022-12-07T04:25:15;6.65;;;6.00;;
2123;SDS011;1068;52.460;13.528;2022-12-07T04:27:43;9.75;;;6.20;;
2123;SDS011;1068;52.460;13.528;2022-12-07T04:30:10;10.23;;;7.10;;
2123;SDS011;1068;52.460;13.528;2022-12-07T04:32:37;6.88;;;6.03;;
2123;SDS011;1068;52.460;13.528;2022-12-07T04:35:04;8.80;;;6.05;;
2123;SDS011;1068;52.460;13.528;2022-12-07T04:37:31;7.03;;;6.20;;
2123;SDS011;1068;52.460;13.528;2022-12-07T04:39:58;12.20;;;7.40;;
2123;SDS011;1068;52.460;13.528;2022-12-07T04:42:25;9.48;;;7.47;;
2123;SDS011;1068;52.460;13.528;2022-12-07T04:44:53;9.30;;;7.13;;
2123;SDS011;1068;52.460;13.528;2022-12-07T04:47:20;8.75;;;7.85;;
2123;SDS011;1068;52.460;13.528;2022-12-07T04:49:47;12.80;;;8.30;;
2123;SDS011;1068;52.460;13.528;2022-12-07T04:52:14;8.45;;;7.55;;
2123;SDS011;1068;52.460;13.528;2022-12-07T04:54:41;8.00;;;6.80;;
2123;SDS011;1068;52.460;13.528;2022-12-07T04:57:08;9.38;;;7.95;;
2123;SDS011;1068;52.460;13.528;2022-12-07T04:59:35;9.25;;;7.72;;
2123;SDS011;1068;52.460;13.528;2022-12-07T05:02:03;10.00;;;7.53;;
2123;SDS011;1068;52.460;13.528;2022-12-07T05:04:30;9.38;;;7.63;;
2123;SDS011;1068;52.460;13.528;2022-12-07T05:06:57;11.05;;;8.65;;
2123;SDS011;1068;52.460;13.528;2022-12-07T05:09:24;9.45;;;7.35;;
2123;SDS011;1068;52.460;13.528;2022-12-07T05:11:50;11.82;;;8.73;;
2123;SDS011;1068;52.460;13.528;2022-12-07T05:14:18;11.18;;;8.35;;
2123;SDS011;1068;52.460;13.528;2022-12-07T05:16:46;12.40;;;9.65;;
2123;SDS011;1068;52.460;13.528;2022-12-07T05:19:15;10.90;;;9.00;;
2123;SDS011;1068;52.460;13.528;2022-12-07T05:21:41;11.38;;;9.07;;
2123;SDS011;1068;52.460;13.528;2022-12-07T05:24:09;12.13;;;8.77;;
2123;SDS011;1068;52.460;13.528;2022-12-07T05:26:37;14.25;;;10.55;;
2123;SDS011;1068;52.460;13.528;2022-12-07T05:29:04;19.70;;;10.75;;
2123;SDS011;1068;52.460;13.528;2022-12-07T05:31:30;11.77;;;8.70;;
2123;SDS011;1068;52.460;13.528;2022-12-07T05:33:57;14.82;;;10.88;;
2123;SDS011;1068;52.460;13.528;2022-12-07T05:36:26;12.40;;;10.25;;
2123;SDS011;1068;52.460;13.528;2022-12-07T05:38:56;12.88;;;9.93;;
2123;SDS011;1068;52.460;13.528;2022-12-07T05:41:23;16.65;;;11.05;;
2123;SDS011;1068;52.460;13.528;2022-12-07T05:44:07;16.13;;;11.27;;
2123;SDS011;1068;52.460;13.528;2022-12-07T05:46:34;13.82;;;11.50;;
2123;SDS011;1068;52.460;13.528;2022-12-07T05:49:02;14.05;;;11.00;;
2123;SDS011;1068;52.460;13.528;2022-12-07T05:51:30;15.40;;;10.30;;
2123;SDS011;1068;52.460;13.528;2022-12-07T05:53:57;15.73;;;11.60;;
2123;SDS011;1068;52.460;13.528;2022-12-07T05:56:24;19.52;;;11.65;;
2123;SDS011;1068;52.460;13.528;2022-12-07T05:58:51;16.92;;;11.30;;
2123;SDS011;1068;52.460;13.528;2022-12-07T06:01:38;15.02;;;11.77;;
2123;SDS011;1068;52.460;13.528;2022-12-07T06:04:05;19.23;;;13.00;;
2123;SDS011;1068;52.460;13.528;2022-12-07T06:06:33;20.42;;;13.45;;
2123;SDS011;1068;52.460;13.528;2022-12-07T06:09:00;20.52;;;13.63;;
2123;SDS011;1068;52.460;13.528;2022-12-07T06:11:27;19.65;;;13.23;;
2123;SDS011;1068;52.460;13.528;2022-12-07T06:14:08;18.42;;;11.88;;
2123;SDS011;1068;52.460;13.528;2022-12-07T06:16:35;18.20;;;12.32;;
2123;SDS011;1068;52.460;13.528;2022-12-07T06:19:03;20.23;;;12.38;;
2123;SDS011;1068;52.460;13.528;2022-12-07T06:21:30;20.08;;;12.40;;
2123;SDS011;1068;52.460;13.528;2022-12-07T06:23:58;17.42;;;12.50;;
2123;SDS011;1068;52.460;13.528;2022-12-07T06:26:25;20.90;;;13.75;;
2123;SDS011;1068;52.460;13.528;2022-12-07T06:28:52;19.00;;;13.15;;
2123;SDS011;1068;52.460;13.528;2022-12-07T06:31:19;22.08;;;14.90;;
2123;SDS011;1068;52.460;13.528;2022-12-07T06:33:46;21.80;;;14.38;;
2123;SDS011;1068;52.460;13.528;2022-12-07T06:36:14;20.05;;;13.13;;
2123;SDS011;1068;52.460;13.528;2022-12-07T06:38:41;19.52;;;14.20;;
2123;SDS011;1068;52.460;13.528;2022-12-07T06:41:09;20.00;;;13.52;;
2123;SDS011;1068;52.460;13.528;2022-12-07T06:43:36;21.40;;;14.13;;
2123;SDS011;1068;52.460;13.528;2022-12-07T06:46:03;19.15;;;14.23;;
2123;SDS011;1068;52.460;13.528;2022-12-07T06:48:30;19.30;;;14.05;;
2123;SDS011;1068;52.460;13.528;2022-12-07T06:50:57;18.63;;;14.38;;
2123;SDS011;1068;52.460;13.528;2022-12-07T06:53:24;19.27;;;13.93;;
2123;SDS011;1068;52.460;13.528;2022-12-07T06:55:51;18.23;;;13.13;;
2123;SDS011;1068;52.460;13.528;2022-12-07T06:58:19;18.00;;;12.23;;
2123;SDS011;1068;52.460;13.528;2022-12-07T07:00:47;20.42;;;13.10;;
2123;SDS011;1068;52.460;13.528;2022-12-07T07:03:14;23.50;;;15.90;;
2123;SDS011;1068;52.460;13.528;2022-12-07T07:05:41;18.83;;;14.55;;
2123;SDS011;1068;52.460;13.528;2022-12-07T07:08:08;20.77;;;15.02;;
2123;SDS011;1068;52.460;13.528;2022-12-07T07:10:35;22.42;;;15.27;;
2123;SDS011;1068;52.460;13.528;2022-12-07T07:13:03;23.95;;;14.98;;
2123;SDS011;1068;52.460;13.528;2022-12-07T07:15:32;23.08;;;15.50;;
2123;SDS011;1068;52.460;13.528;2022-12-07T07:17:59;21.80;;;15.43;;
2123;SDS011;1068;52.460;13.528;2022-12-07T07:20:28;19.77;;;13.57;;
2123;SDS011;1068;52.460;13.528;2022-12-07T07:22:55;22.48;;;16.25;;
2123;SDS011;1068;52.460;13.528;2022-12-07T07:25:22;20.48;;;14.95;;
2123;SDS011;1068;52.460;13.528;2022-12-07T07:27:49;24.17;;;14.25;;
2123;SDS011;1068;52.460;13.528;2022-12-07T07:30:16;22.42;;;14.40;;
2123;SDS011;1068;52.460;13.528;2022-12-07T07:32:44;18.17;;;13.75;;
2123;SDS011;1068;52.460;13.528;2022-12-07T07:35:11;23.15;;;15.93;;
2123;SDS011;1068;52.460;13.528;2022-12-07T07:37:39;20.85;;;14.30;;
2123;SDS011;1068;52.460;13.528;2022-12-07T07:40:06;22.55;;;13.75;;
2123;SDS011;1068;52.460;13.528;2022-12-07T07:42:33;22.63;;;16.33;;
2123;SDS011;1068;52.460;13.528;2022-12-07T07:45:00;19.30;;;13.60;;
2123;SDS011;1068;52.460;13.528;2022-12-07T07:47:27;20.98;;;13.18;;
2123;SDS011;1068;52.460;13.528;2022-12-07T07:49:55;18.40;;;13.40;;
2123;SDS011;1068;52.460;13.528;2022-12-07T07:52:22;18.50;;;13.68;;
2123;SDS011;1068;52.460;13.528;2022-12-07T07:54:49;17.27;;;13.10;;
2123;SDS011;1068;52.460;13.528;2022-12-07T07:57:16;16.73;;;13.93;;
2123;SDS011;1068;52.460;13.528;2022-12-07T07:59:43;19.40;;;13.10;;
2123;SDS011;1068;52.460;13.528;2022-12-07T08:02:10;20.77;;;12.93;;
2123;SDS011;1068;52.460;13.528;2022-12-07T08:04:40;16.23;;;13.02;;
2123;SDS011;1068;52.460;13.528;2022-12-07T08:07:08;24.40;;;14.80;;
2123;SDS011;1068;52.460;13.528;2022-12-07T08:09:35;17.83;;;13.60;;
2123;SDS011;1068;52.460;13.528;2022-12-07T08:12:02;17.75;;;14.07;;
2123;SDS011;1068;52.460;13.528;2022-12-07T08:14:29;18.03;;;14.03;;
2123;SDS011;1068;52.460;13.528;2022-12-07T08:16:56;17.52;;;12.57;;
2123;SDS011;1068;52.460;13.528;2022-12-07T08:19:23;20.98;;;14.25;;
2123;SDS011;1068;52.460;13.528;2022-12-07T08:21:50;20.52;;;12.50;;
2123;SDS011;1068;52.460;13.528;2022-12-07T08:24:18;17.15;;;12.75;;
2123;SDS011;1068;52.460;13.528;2022-12-07T08:26:45;13.80;;;10.45;;
2123;SDS011;1068;52.460;13.528;2022-12-07T08:29:12;14.10;;;11.35;;
2123;SDS011;1068;52.460;13.528;2022-12-07T08:31:39;18.30;;;14.00;;
2123;SDS011;1068;52.460;13.528;2022-12-07T08:34:06;16.85;;;11.63;;
2123;SDS011;1068;52.460;13.528;2022-12-07T08:36:33;12.50;;;10.07;;
2123;SDS011;1068;52.460;13.528;2022-12-07T08:38:59;15.15;;;9.95;;
2123;SDS011;1068;52.460;13.528;2022-12-07T08:41:28;13.45;;;8.63;;
2123;SDS011;1068;52.460;13.528;2022-12-07T08:43:55;14.25;;;8.30;;
2123;SDS011;1068;52.460;13.528;2022-12-07T08:46:23;11.77;;;9.02;;
2123;SDS011;1068;52.460;13.528;2022-12-07T08:48:53;13.67;;;8.13;;
2123;SDS011;1068;52.460;13.528;2022-12-07T08:51:21;14.63;;;8.18;;
2123;SDS011;1068;52.460;13.528;2022-12-07T08:53:49;9.27;;;6.80;;
2123;SDS011;1068;52.460;13.528;2022-12-07T08:56:16;6.93;;;5.93;;
2123;SDS011;1068;52.460;13.528;2022-12-07T08:58:44;5.30;;;4.80;;
2123;SDS011;1068;52.460;13.528;2022-12-07T09:01:11;5.40;;;4.47;;
2123;SDS011;1068;52.460;13.528;2022-12-07T09:03:38;4.82;;;3.80;;
2123;SDS011;1068;52.460;13.528;2022-12-07T09:06:05;4.18;;;3.45;;
2123;SDS011;1068;52.460;13.528;2022-12-07T09:08:33;2.80;;;2.60;;
2123;SDS011;1068;52.460;13.528;2022-12-07T09:11:00;2.40;;;2.20;;
2123;SDS011;1068;52.460;13.528;2022-12-07T09:13:27;5.15;;;2.30;;
2123;SDS011;1068;52.460;13.528;2022-12-07T09:15:55;2.10;;;1.60;;
2123;SDS011;1068;52.460;13.528;2022-12-07T09:18:22;1.80;;;1.70;;
2123;SDS011;1068;52.460;13.528;2022-12-07T09:20:50;1.63;;;1.52;;
2123;SDS011;1068;52.460;13.528;2022-12-07T09:23:16;2.13;;;2.03;;
2123;SDS011;1068;52.460;13.528;2022-12-07T09:25:43;2.25;;;1.95;;
2123;SDS011;1068;52.460;13.528;2022-12-07T09:28:10;1.60;;;1.50;;
2123;SDS011;1068;52.460;13.528;2022-12-07T09:30:37;1.90;;;1.80;;
2123;SDS011;1068;52.460;13.528;2022-12-07T09:33:05;3.75;;;1.73;;
2123;SDS011;1068;52.460;13.528;2022-12-07T09:35:32;2.38;;;1.67;;
2123;SDS011;1068;52.460;13.528;2022-12-07T09:37:59;5.43;;;2.28;;
2123;SDS011;1068;52.460;13.528;2022-12-07T09:40:27;2.13;;;1.92;;
2123;SDS011;1068;52.460;13.528;2022-12-07T09:42:54;1.58;;;1.48;;
2123;SDS011;1068;52.460;13.528;2022-12-07T09:45:22;1.33;;;1.15;;
2123;SDS011;1068;52.460;13.528;2022-12-07T09:47:50;1.75;;;1.20;;
2123;SDS011;1068;52.460;13.528;2022-12-07T09:50:18;1.40;;;1.30;;
2123;SDS011;1068;52.460;13.528;2022-12-07T09:52:47;1.80;;;1.45;;
2123;SDS011;1068;52.460;13.528;2022-12-07T09:55:15;1.70;;;1.60;;
2123;SDS011;1068;52.460;13.528;2022-12-07T09:57:42;4.03;;;2.03;;
2123;SDS011;1068;52.460;13.528;2022-12-07T10:00:11;3.50;;;2.35;;
2123;SDS011;1068;52.460;13.528;2022-12-07T10:02:40;2.15;;;1.95;;
2123;SDS011;1068;52.460;13.528;2022-12-07T10:05:10;1.90;;;1.80;;
2123;SDS011;1068;52.460;13.528;2022-12-07T10:07:40;1.90;;;1.80;;
2123;SDS011;1068;52.460;13.528;2022-12-07T10:10:10;2.00;;;1.90;;
2123;SDS011;1068;52.460;13.528;2022-12-07T10:12:50;2.55;;;1.92;;
2123;SDS011;1068;52.460;13.528;2022-12-07T10:15:18;2.70;;;2.33;;
2123;SDS011;1068;52.460;13.528;2022-12-07T10:17:47;2.05;;;1.90;;
2123;SDS011;1068;52.460;13.528;2022-12-07T10:20:21;2.00;;;1.90;;
2123;SDS011;1068;52.460;13.528;2022-12-07T10:23:00;1.83;;;1.73;;
2123;SDS011;1068;52.460;13.528;2022-12-07T10:25:28;2.15;;;1.77;;
2123;SDS011;1068;52.460;13.528;2022-12-07T10:27:57;1.92;;;1.73;;
2123;SDS011;1068;52.460;13.528;2022-12-07T10:30:25;2.35;;;2.15;;
2123;SDS011;1068;52.460;13.528;2022-12-07T10:32:52;2.20;;;2.10;;
2123;SDS011;1068;52.460;13.528;2022-12-07T10:35:23;2.40;;;2.30;;
2123;SDS011;1068;52.460;13.528;2022-12-07T10:37:51;2.10;;;1.90;;
2123;SDS011;1068;52.460;13.528;2022-12-07T10:40:31;3.25;;;3.03;;
2123;SDS011;1068;52.460;13.528;2022-12-07T10:43:06;4.10;;;3.40;;
2123;SDS011;1068;52.460;13.528;2022-12-07T10:45:41;3.45;;;3.15;;
2123;SDS011;1068;52.460;13.528;2022-12-07T10:48:10;2.45;;;2.35;;
2123;SDS011;1068;52.460;13.528;2022-12-07T10:50:41;2.53;;;1.98;;
2123;SDS011;1068;52.460;13.528;2022-12-07T10:53:24;1.95;;;1.85;;
2123;SDS011;1068;52.460;13.528;2022-12-07T10:55:59;2.10;;;2.00;;
2123;SDS011;1068;52.460;13.528;2022-12-07T10:58:31;4.53;;;2.40;;
2123;SDS011;1068;52.460;13.528;2022-12-07T11:01:04;2.50;;;2.30;;
2123;SDS011;1068;52.460;13.528;2022-12-07T11:03:41;2.47;;;2.28;;
2123;SDS011;1068;52.460;13.528;2022-12-07T11:06:14;2.53;;;2.00;;
2123;SDS011;1068;52.460;13.528;2022-12-07T11:08:46;2.45;;;2.22;;
2123;SDS011;1068;52.460;13.528;2022-12-07T11:11:19;2.03;;;1.92;;
2123;SDS011;1068;52.460;13.528;2022-12-07T11:13:52;1.83;;;1.73;;
2123;SDS011;1068;52.460;13.528;2022-12-07T11:16:24;3.15;;;1.90;;
2123;SDS011;1068;52.460;13.528;2022-12-07T11:18:59;2.92;;;1.80;;
2123;SDS011;1068;52.460;13.528;2022-12-07T11:21:31;2.90;;;2.50;;
2123;SDS011;1068;52.460;13.528;2022-12-07T11:24:04;2.40;;;2.20;;
2123;SDS011;1068;52.460;13.528;2022-12-07T11:26:39;5.63;;;2.70;;
2123;SDS011;1068;52.460;13.528;2022-12-07T11:29:14;2.38;;;2.20;;
2123;SDS011;1068;52.460;13.528;2022-12-07T11:31:48;3.13;;;2.60;;
2123;SDS011;1068;52.460;13.528;2022-12-07T11:34:19;3.33;;;2.78;;
2123;SDS011;1068;52.460;13.528;2022-12-07T11:36:51;2.50;;;2.30;;
2123;SDS011;1068;52.460;13.528;2022-12-07T11:39:22;1.98;;;1.88;;
2123;SDS011;1068;52.460;13.528;2022-12-07T11:41:52;2.50;;;2.30;;
2123;SDS011;1068;52.460;13.528;2022-12-07T11:44:24;3.00;;;2.75;;
2123;SDS011;1068;52.460;13.528;2022-12-07T11:46:54;2.88;;;2.60;;
2123;SDS011;1068;52.460;13.528;2022-12-07T11:49:23;2.92;;;2.72;;
2123;SDS011;1068;52.460;13.528;2022-12-07T11:51:54;2.40;;;2.20;;
2123;SDS011;1068;52.460;13.528;2022-12-07T11:54:25;2.55;;;2.35;;
2123;SDS011;1068;52.460;13.528;2022-12-07T11:56:54;5.40;;;3.65;;
2123;SDS011;1068;52.460;13.528;2022-12-07T11:59:23;3.70;;;3.40;;
2123;SDS011;1068;52.460;13.528;2022-12-07T12:01:53;2.85;;;2.65;;
2123;SDS011;1068;52.460;13.528;2022-12-07T12:04:23;3.38;;;3.13;;
2123;SDS011;1068;52.460;13.528;2022-12-07T12:06:52;3.08;;;2.78;;
2123;SDS011;1068;52.460;13.528;2022-12-07T12:09:20;3.63;;;3.33;;
2123;SDS011;1068;52.460;13.528;2022-12-07T12:11:56;3.00;;;2.80;;
2123;SDS011;1068;52.460;13.528;2022-12-07T12:14:30;2.75;;;2.47;;
2123;SDS011;1068;52.460;13.528;2022-12-07T12:17:03;2.40;;;2.20;;
2123;SDS011;1068;52.460;13.528;2022-12-07T12:19:34;3.53;;;2.58;;
2123;SDS011;1068;52.460;13.528;2022-12-07T12:22:04;2.42;;;2.30;;
2123;SDS011;1068;52.460;13.528;2022-12-07T12:24:32;3.95;;;2.55;;
2123;SDS011;1068;52.460;13.528;2022-12-07T12:27:03;3.92;;;2.65;;
2123;SDS011;1068;52.460;13.528;2022-12-07T12:29:31;3.00;;;2.80;;
2123;SDS011;1068;52.460;13.528;2022-12-07T12:34:58;2.65;;;2.13;;
2123;SDS011;1068;52.460;13.528;2022-12-07T12:37:40;6.80;;;2.45;;
2123;SDS011;1068;52.460;13.528;2022-12-07T12:42:57;3.88;;;2.20;;
2123;SDS011;1068;52.460;13.528;2022-12-07T12:45:25;7.00;;;2.42;;
2123;SDS011;1068;52.460;13.528;2022-12-07T12:47:56;1.97;;;1.70;;
2123;SDS011;1068;52.460;13.528;2022-12-07T12:50:25;2.25;;;2.05;;
2123;SDS011;1068;52.460;13.528;2022-12-07T12:52:58;3.67;;;1.80;;
2123;SDS011;1068;52.460;13.528;2022-12-07T12:55:43;3.55;;;2.08;;
2123;SDS011;1068;52.460;13.528;2022-12-07T13:03:52;2.88;;;2.67;;
2123;SDS011;1068;52.460;13.528;2022-12-07T13:06:28;3.20;;;2.42;;
2123;SDS011;1068;52.460;13.528;2022-12-07T13:09:00;5.13;;;2.20;;
2123;SDS011;1068;52.460;13.528;2022-12-07T13:11:28;2.67;;;2.45;;
2123;SDS011;1068;52.460;13.528;2022-12-07T13:16:40;2.80;;;2.10;;
2123;SDS011;1068;52.460;13.528;2022-12-07T13:21:55;3.20;;;2.90;;
2123;SDS011;1068;52.460;13.528;2022-12-07T13:24:22;6.22;;;2.72;;
2123;SDS011;1068;52.460;13.528;2022-12-07T13:26:51;5.90;;;2.80;;
2123;SDS011;1068;52.460;13.528;2022-12-07T13:29:22;3.03;;;2.53;;
2123;SDS011;1068;52.460;13.528;2022-12-07T13:31:50;5.43;;;3.10;;
2123;SDS011;1068;52.460;13.528;2022-12-07T13:34:28;3.83;;;2.45;;
2123;SDS011;1068;52.460;13.528;2022-12-07T13:36:56;5.83;;;2.40;;
2123;SDS011;1068;52.460;13.528;2022-12-07T13:39:24;4.45;;;2.17;;
2123;SDS011;1068;52.460;13.528;2022-12-07T13:41:52;4.00;;;2.63;;
2123;SDS011;1068;52.460;13.528;2022-12-07T13:44:20;3.70;;;1.95;;
2123;SDS011;1068;52.460;13.528;2022-12-07T13:46:49;2.30;;;2.10;;
2123;SDS011;1068;52.460;13.528;2022-12-07T13:49:18;4.50;;;2.92;;
2123;SDS011;1068;52.460;13.528;2022-12-07T13:51:46;3.28;;;2.40;;
2123;SDS011;1068;52.460;13.528;2022-12-07T13:54:14;5.23;;;2.10;;
2123;SDS011;1068;52.460;13.528;2022-12-07T13:56:41;3.47;;;2.20;;
2123;SDS011;1068;52.460;13.528;2022-12-07T13:59:10;5.00;;;2.10;;
2123;SDS011;1068;52.460;13.528;2022-12-07T14:01:39;7.32;;;3.40;;
2123;SDS011;1068;52.460;13.528;2022-12-07T14:06:59;3.67;;;2.03;;
2123;SDS011;1068;52.460;13.528;2022-12-07T14:09:29;3.45;;;2.53;;
2123;SDS011;1068;52.460;13.528;2022-12-07T14:11:56;3.47;;;2.00;;
2123;SDS011;1068;52.460;13.528;2022-12-07T14:14:25;2.17;;;1.98;;
2123;SDS011;1068;52.460;13.528;2022-12-07T14:16:57;3.25;;;1.58;;
2123;SDS011;1068;52.460;13.528;2022-12-07T14:19:41;2.40;;;2.13;;
2123;SDS011;1068;52.460;13.528;2022-12-07T14:22:08;2.60;;;2.27;;
2123;SDS011;1068;52.460;13.528;2022-12-07T14:24:42;4.65;;;2.05;;
2123;SDS011;1068;52.460;13.528;2022-12-07T14:27:16;4.70;;;2.90;;
2123;SDS011;1068;52.460;13.528;2022-12-07T14:29:43;4.30;;;1.90;;
2123;SDS011;1068;52.460;13.528;2022-12-07T14:34:56;4.30;;;2.30;;
2123;SDS011;1068;52.460;13.528;2022-12-07T14:37:23;4.25;;;2.15;;
2123;SDS011;1068;52.460;13.528;2022-12-07T14:39:51;3.30;;;1.95;;
2123;SDS011;1068;52.460;13.528;2022-12-07T14:42:18;6.05;;;2.70;;
2123;SDS011;1068;52.460;13.528;2022-12-07T14:44:46;5.68;;;3.15;;
2123;SDS011;1068;52.460;13.528;2022-12-07T14:47:13;5.57;;;2.53;;
2123;SDS011;1068;52.460;13.528;2022-12-07T14:49:40;2.95;;;1.92;;
2123;SDS011;1068;52.460;13.528;2022-12-07T14:52:09;4.70;;;2.28;;
2123;SDS011;1068;52.460;13.528;2022-12-07T14:54:38;3.75;;;1.92;;
2123;SDS011;1068;52.460;13.528;2022-12-07T14:57:06;3.42;;;1.92;;
2123;SDS011;1068;52.460;13.528;2022-12-07T14:59:34;2.10;;;1.50;;
2123;SDS011;1068;52.460;13.528;2022-12-07T15:02:01;2.38;;;1.70;;
2123;SDS011;1068;52.460;13.528;2022-12-07T15:04:28;5.03;;;2.10;;
2123;SDS011;1068;52.460;13.528;2022-12-07T15:06:55;7.55;;;2.33;;
2123;SDS011;1068;52.460;13.528;2022-12-07T15:09:22;4.22;;;1.77;;
2123;SDS011;1068;52.460;13.528;2022-12-07T15:11:49;4.85;;;2.05;;
2123;SDS011;1068;52.460;13.528;2022-12-07T15:14:18;7.30;;;2.05;;
2123;SDS011;1068;52.460;13.528;2022-12-07T15:16:44;2.58;;;2.03;;
2123;SDS011;1068;52.460;13.528;2022-12-07T15:19:12;2.00;;;1.70;;
2123;SDS011;1068;52.460;13.528;2022-12-07T15:21:39;4.22;;;2.25;;
2123;SDS011;1068;52.460;13.528;2022-12-07T15:24:07;3.65;;;2.80;;
2123;SDS011;1068;52.460;13.528;2022-12-07T15:26:34;5.90;;;3.17;;